sensor_id;sensor_type;location;lat;lon;timestamp;P1;durP1;ratioP1;P2;durP2;ratioP2
42244;SDS011;27912;51.828;5.688;2023-07-31T00:00:00;1.98;;;0.98;;
42244;SDS011;27912;51.828;5.688;2023-07-31T00:02:25;2.30;;;1.02;;
42244;SDS011;27912;51.828;5.688;2023-07-31T00:04:51;4.05;;;1.80;;
42244;SDS011;27912;51.828;5.688;2023-07-31T00:07:16;6.45;;;2.50;;
42244;SDS011;27912;51.828;5.688;2023-07-31T00:09:43;7.63;;;3.38;;
42244;SDS011;27912;51.828;5.688;2023-07-31T00:12:08;10.63;;;4.47;;
42244;SDS011;27912;51.828;5.688;2023-07-31T00:14:34;12.63;;;4.88;;
42244;SDS011;27912;51.828;5.688;2023-07-31T00:16:59;20.60;;;7.47;;
42244;SDS011;27912;51.828;5.688;2023-07-31T00:19:25;22.70;;;8.20;;
42244;SDS011;27912;51.828;5.688;2023-07-31T00:21:50;28.48;;;9.70;;
42244;SDS011;27912;51.828;5.688;2023-07-31T00:24:16;33.53;;;10.88;;
42244;SDS011;27912;51.828;5.688;2023-07-31T00:26:41;28.48;;;11.55;;
42244;SDS011;27912;51.828;5.688;2023-07-31T00:29:07;40.75;;;12.02;;
42244;SDS011;27912;51.828;5.688;2023-07-31T00:31:32;39.25;;;11.55;;
42244;SDS011;27912;51.828;5.688;2023-07-31T00:33:59;29.63;;;11.30;;
42244;SDS011;27912;51.828;5.688;2023-07-31T00:36:24;33.47;;;11.40;;
42244;SDS011;27912;51.828;5.688;2023-07-31T00:38:50;29.00;;;11.55;;
42244;SDS011;27912;51.828;5.688;2023-07-31T00:41:15;32.38;;;11.30;;
42244;SDS011;27912;51.828;5.688;2023-07-31T00:43:41;37.22;;;11.63;;
42244;SDS011;27912;51.828;5.688;2023-07-31T00:46:06;34.30;;;10.32;;
42244;SDS011;27912;51.828;5.688;2023-07-31T00:48:32;28.25;;;9.93;;
42244;SDS011;27912;51.828;5.688;2023-07-31T00:50:59;27.17;;;10.40;;
42244;SDS011;27912;51.828;5.688;2023-07-31T00:53:26;30.83;;;9.50;;
42244;SDS011;27912;51.828;5.688;2023-07-31T00:55:52;28.63;;;9.50;;
42244;SDS011;27912;51.828;5.688;2023-07-31T00:58:18;28.17;;;9.48;;
42244;SDS011;27912;51.828;5.688;2023-07-31T01:00:43;27.63;;;9.00;;
42244;SDS011;27912;51.828;5.688;2023-07-31T01:03:09;25.73;;;9.60;;
42244;SDS011;27912;51.828;5.688;2023-07-31T01:05:49;28.83;;;9.27;;
42244;SDS011;27912;51.828;5.688;2023-07-31T01:08:42;25.50;;;8.73;;
42244;SDS011;27912;51.828;5.688;2023-07-31T01:11:13;20.50;;;7.32;;
42244;SDS011;27912;51.828;5.688;2023-07-31T01:13:46;21.98;;;8.13;;
42244;SDS011;27912;51.828;5.688;2023-07-31T01:16:12;31.45;;;8.32;;
42244;SDS011;27912;51.828;5.688;2023-07-31T01:18:38;28.95;;;8.15;;
42244;SDS011;27912;51.828;5.688;2023-07-31T01:21:06;25.00;;;7.85;;
42244;SDS011;27912;51.828;5.688;2023-07-31T01:24:05;27.80;;;8.65;;
42244;SDS011;27912;51.828;5.688;2023-07-31T01:26:39;26.83;;;7.82;;
42244;SDS011;27912;51.828;5.688;2023-07-31T01:29:20;19.47;;;7.80;;
42244;SDS011;27912;51.828;5.688;2023-07-31T01:32:00;30.65;;;8.38;;
42244;SDS011;27912;51.828;5.688;2023-07-31T01:34:28;24.17;;;9.60;;
42244;SDS011;27912;51.828;5.688;2023-07-31T01:36:55;20.77;;;7.90;;
42244;SDS011;27912;51.828;5.688;2023-07-31T01:39:23;23.48;;;7.95;;
42244;SDS011;27912;51.828;5.688;2023-07-31T01:41:49;24.27;;;8.52;;
42244;SDS011;27912;51.828;5.688;2023-07-31T01:44:14;20.92;;;6.82;;
42244;SDS011;27912;51.828;5.688;2023-07-31T01:46:40;25.50;;;8.07;;
42244;SDS011;27912;51.828;5.688;2023-07-31T01:49:06;24.65;;;8.02;;
42244;SDS011;27912;51.828;5.688;2023-07-31T01:51:31;25.13;;;7.47;;
42244;SDS011;27912;51.828;5.688;2023-07-31T01:53:59;20.80;;;7.25;;
42244;SDS011;27912;51.828;5.688;2023-07-31T01:56:25;20.13;;;5.65;;
42244;SDS011;27912;51.828;5.688;2023-07-31T01:58:51;21.20;;;7.10;;
42244;SDS011;27912;51.828;5.688;2023-07-31T02:01:16;24.73;;;7.22;;
42244;SDS011;27912;51.828;5.688;2023-07-31T02:03:42;22.38;;;7.13;;
42244;SDS011;27912;51.828;5.688;2023-07-31T02:06:07;18.48;;;7.25;;
42244;SDS011;27912;51.828;5.688;2023-07-31T02:08:33;19.80;;;7.07;;
42244;SDS011;27912;51.828;5.688;2023-07-31T02:10:58;21.58;;;7.78;;
42244;SDS011;27912;51.828;5.688;2023-07-31T02:13:24;19.85;;;6.93;;
42244;SDS011;27912;51.828;5.688;2023-07-31T02:15:49;23.45;;;7.57;;
42244;SDS011;27912;51.828;5.688;2023-07-31T02:18:15;21.85;;;8.65;;
42244;SDS011;27912;51.828;5.688;2023-07-31T02:20:41;23.95;;;8.43;;
42244;SDS011;27912;51.828;5.688;2023-07-31T02:23:06;29.55;;;8.30;;
42244;SDS011;27912;51.828;5.688;2023-07-31T02:25:32;22.73;;;8.88;;
42244;SDS011;27912;51.828;5.688;2023-07-31T02:27:58;24.02;;;7.97;;
42244;SDS011;27912;51.828;5.688;2023-07-31T02:30:23;20.63;;;8.10;;
42244;SDS011;27912;51.828;5.688;2023-07-31T02:32:49;22.92;;;8.10;;
42244;SDS011;27912;51.828;5.688;2023-07-31T02:35:14;23.77;;;8.00;;
42244;SDS011;27912;51.828;5.688;2023-07-31T02:37:41;21.13;;;8.15;;
42244;SDS011;27912;51.828;5.688;2023-07-31T02:40:07;25.88;;;7.75;;
42244;SDS011;27912;51.828;5.688;2023-07-31T02:42:33;21.90;;;6.97;;
42244;SDS011;27912;51.828;5.688;2023-07-31T02:44:58;21.50;;;7.03;;
42244;SDS011;27912;51.828;5.688;2023-07-31T02:47:24;26.90;;;7.70;;
42244;SDS011;27912;51.828;5.688;2023-07-31T02:49:49;20.80;;;6.97;;
42244;SDS011;27912;51.828;5.688;2023-07-31T02:52:15;19.80;;;6.47;;
42244;SDS011;27912;51.828;5.688;2023-07-31T02:54:40;21.90;;;6.63;;
42244;SDS011;27912;51.828;5.688;2023-07-31T02:57:06;16.83;;;6.30;;
42244;SDS011;27912;51.828;5.688;2023-07-31T02:59:31;18.45;;;6.50;;
42244;SDS011;27912;51.828;5.688;2023-07-31T03:01:57;23.40;;;6.80;;
42244;SDS011;27912;51.828;5.688;2023-07-31T03:04:22;24.50;;;6.82;;
42244;SDS011;27912;51.828;5.688;2023-07-31T03:06:48;21.88;;;7.05;;
42244;SDS011;27912;51.828;5.688;2023-07-31T03:09:13;27.80;;;6.47;;
42244;SDS011;27912;51.828;5.688;2023-07-31T03:11:39;23.13;;;5.88;;
42244;SDS011;27912;51.828;5.688;2023-07-31T03:14:04;15.75;;;5.82;;
42244;SDS011;27912;51.828;5.688;2023-07-31T03:16:30;18.63;;;6.50;;
42244;SDS011;27912;51.828;5.688;2023-07-31T03:18:55;19.85;;;5.47;;
42244;SDS011;27912;51.828;5.688;2023-07-31T03:21:21;15.32;;;5.18;;
42244;SDS011;27912;51.828;5.688;2023-07-31T03:23:46;18.73;;;5.60;;
42244;SDS011;27912;51.828;5.688;2023-07-31T03:26:12;13.57;;;4.95;;
42244;SDS011;27912;51.828;5.688;2023-07-31T03:28:38;17.60;;;5.57;;
42244;SDS011;27912;51.828;5.688;2023-07-31T03:31:04;17.20;;;5.30;;
42244;SDS011;27912;51.828;5.688;2023-07-31T03:33:29;20.08;;;5.75;;
42244;SDS011;27912;51.828;5.688;2023-07-31T03:35:55;19.25;;;5.70;;
42244;SDS011;27912;51.828;5.688;2023-07-31T03:38:20;20.77;;;5.38;;
42244;SDS011;27912;51.828;5.688;2023-07-31T03:40:46;19.25;;;5.43;;
42244;SDS011;27912;51.828;5.688;2023-07-31T03:43:12;20.00;;;5.93;;
42244;SDS011;27912;51.828;5.688;2023-07-31T03:45:37;20.27;;;5.88;;
42244;SDS011;27912;51.828;5.688;2023-07-31T03:48:03;22.45;;;6.05;;
42244;SDS011;27912;51.828;5.688;2023-07-31T03:50:29;28.33;;;6.85;;
42244;SDS011;27912;51.828;5.688;2023-07-31T03:52:55;20.52;;;5.78;;
42244;SDS011;27912;51.828;5.688;2023-07-31T03:55:20;20.58;;;5.60;;
42244;SDS011;27912;51.828;5.688;2023-07-31T03:57:46;18.90;;;5.63;;
42244;SDS011;27912;51.828;5.688;2023-07-31T04:00:12;17.85;;;6.20;;
42244;SDS011;27912;51.828;5.688;2023-07-31T04:02:38;19.80;;;6.00;;
42244;SDS011;27912;51.828;5.688;2023-07-31T04:05:04;21.60;;;6.00;;
42244;SDS011;27912;51.828;5.688;2023-07-31T04:07:30;17.92;;;6.18;;
42244;SDS011;27912;51.828;5.688;2023-07-31T04:09:56;17.10;;;5.80;;
42244;SDS011;27912;51.828;5.688;2023-07-31T04:12:22;22.90;;;6.63;;
42244;SDS011;27912;51.828;5.688;2023-07-31T04:14:48;21.27;;;6.13;;
42244;SDS011;27912;51.828;5.688;2023-07-31T04:17:14;23.00;;;6.25;;
42244;SDS011;27912;51.828;5.688;2023-07-31T04:19:40;14.70;;;5.50;;
42244;SDS011;27912;51.828;5.688;2023-07-31T04:22:05;18.40;;;5.53;;
42244;SDS011;27912;51.828;5.688;2023-07-31T04:24:31;18.02;;;5.90;;
42244;SDS011;27912;51.828;5.688;2023-07-31T04:26:56;19.98;;;6.65;;
42244;SDS011;27912;51.828;5.688;2023-07-31T04:29:22;17.70;;;5.30;;
42244;SDS011;27912;51.828;5.688;2023-07-31T04:31:48;19.70;;;5.93;;
42244;SDS011;27912;51.828;5.688;2023-07-31T04:34:13;19.60;;;5.20;;
42244;SDS011;27912;51.828;5.688;2023-07-31T04:36:39;20.73;;;6.10;;
42244;SDS011;27912;51.828;5.688;2023-07-31T04:39:05;18.83;;;6.03;;
42244;SDS011;27912;51.828;5.688;2023-07-31T04:41:31;16.27;;;5.93;;
42244;SDS011;27912;51.828;5.688;2023-07-31T04:43:56;17.90;;;5.38;;
42244;SDS011;27912;51.828;5.688;2023-07-31T04:46:22;21.10;;;5.38;;
42244;SDS011;27912;51.828;5.688;2023-07-31T04:48:48;15.57;;;4.85;;
42244;SDS011;27912;51.828;5.688;2023-07-31T04:51:13;14.95;;;5.13;;
42244;SDS011;27912;51.828;5.688;2023-07-31T04:53:39;21.90;;;5.18;;
42244;SDS011;27912;51.828;5.688;2023-07-31T04:56:05;16.42;;;5.45;;
42244;SDS011;27912;51.828;5.688;2023-07-31T04:58:30;19.67;;;5.38;;
42244;SDS011;27912;51.828;5.688;2023-07-31T05:00:56;17.65;;;5.03;;
42244;SDS011;27912;51.828;5.688;2023-07-31T05:03:21;18.13;;;5.43;;
42244;SDS011;27912;51.828;5.688;2023-07-31T05:05:47;21.35;;;5.53;;
42244;SDS011;27912;51.828;5.688;2023-07-31T05:08:12;16.00;;;5.28;;
42244;SDS011;27912;51.828;5.688;2023-07-31T05:10:38;22.85;;;5.70;;
42244;SDS011;27912;51.828;5.688;2023-07-31T05:13:04;17.05;;;5.50;;
42244;SDS011;27912;51.828;5.688;2023-07-31T05:15:30;16.77;;;5.32;;
42244;SDS011;27912;51.828;5.688;2023-07-31T05:17:55;25.42;;;4.75;;
42244;SDS011;27912;51.828;5.688;2023-07-31T05:20:21;17.27;;;4.85;;
42244;SDS011;27912;51.828;5.688;2023-07-31T05:22:47;13.85;;;4.90;;
42244;SDS011;27912;51.828;5.688;2023-07-31T05:25:12;15.23;;;5.30;;
42244;SDS011;27912;51.828;5.688;2023-07-31T05:27:38;17.88;;;5.13;;
42244;SDS011;27912;51.828;5.688;2023-07-31T05:30:04;15.40;;;4.72;;
42244;SDS011;27912;51.828;5.688;2023-07-31T05:32:30;15.13;;;4.93;;
42244;SDS011;27912;51.828;5.688;2023-07-31T05:34:56;14.52;;;4.43;;
42244;SDS011;27912;51.828;5.688;2023-07-31T05:37:21;13.45;;;5.68;;
42244;SDS011;27912;51.828;5.688;2023-07-31T05:39:47;19.98;;;5.13;;
42244;SDS011;27912;51.828;5.688;2023-07-31T05:42:13;19.40;;;5.57;;
42244;SDS011;27912;51.828;5.688;2023-07-31T05:44:38;21.58;;;5.72;;
42244;SDS011;27912;51.828;5.688;2023-07-31T05:47:04;12.77;;;4.82;;
42244;SDS011;27912;51.828;5.688;2023-07-31T05:49:30;12.13;;;4.95;;
42244;SDS011;27912;51.828;5.688;2023-07-31T05:51:55;18.98;;;5.50;;
42244;SDS011;27912;51.828;5.688;2023-07-31T05:54:21;17.20;;;4.78;;
42244;SDS011;27912;51.828;5.688;2023-07-31T05:56:47;16.60;;;4.95;;
42244;SDS011;27912;51.828;5.688;2023-07-31T05:59:12;13.18;;;5.28;;
42244;SDS011;27912;51.828;5.688;2023-07-31T06:01:39;18.38;;;5.30;;
42244;SDS011;27912;51.828;5.688;2023-07-31T06:04:04;16.02;;;4.68;;
42244;SDS011;27912;51.828;5.688;2023-07-31T06:06:30;16.65;;;5.32;;
42244;SDS011;27912;51.828;5.688;2023-07-31T06:08:56;15.75;;;4.78;;
42244;SDS011;27912;51.828;5.688;2023-07-31T06:11:21;11.52;;;4.22;;
42244;SDS011;27912;51.828;5.688;2023-07-31T06:13:48;11.85;;;4.38;;
42244;SDS011;27912;51.828;5.688;2023-07-31T06:16:14;19.08;;;4.97;;
42244;SDS011;27912;51.828;5.688;2023-07-31T06:18:40;13.98;;;4.95;;
42244;SDS011;27912;51.828;5.688;2023-07-31T06:21:06;10.75;;;4.22;;
42244;SDS011;27912;51.828;5.688;2023-07-31T06:23:32;11.80;;;4.00;;
42244;SDS011;27912;51.828;5.688;2023-07-31T06:25:58;12.43;;;4.10;;
42244;SDS011;27912;51.828;5.688;2023-07-31T06:28:30;13.10;;;3.92;;
42244;SDS011;27912;51.828;5.688;2023-07-31T06:30:56;10.38;;;3.65;;
42244;SDS011;27912;51.828;5.688;2023-07-31T06:33:23;7.00;;;3.45;;
42244;SDS011;27912;51.828;5.688;2023-07-31T06:35:48;10.93;;;3.63;;
42244;SDS011;27912;51.828;5.688;2023-07-31T06:38:14;7.78;;;2.90;;
42244;SDS011;27912;51.828;5.688;2023-07-31T06:40:40;9.20;;;2.90;;
42244;SDS011;27912;51.828;5.688;2023-07-31T06:43:05;7.50;;;2.65;;
42244;SDS011;27912;51.828;5.688;2023-07-31T06:45:34;5.85;;;1.92;;
42244;SDS011;27912;51.828;5.688;2023-07-31T06:48:00;4.57;;;2.15;;
42244;SDS011;27912;51.828;5.688;2023-07-31T06:50:27;5.32;;;2.42;;
42244;SDS011;27912;51.828;5.688;2023-07-31T06:52:53;4.95;;;1.83;;
42244;SDS011;27912;51.828;5.688;2023-07-31T06:55:19;5.25;;;1.70;;
42244;SDS011;27912;51.828;5.688;2023-07-31T06:57:49;4.72;;;2.17;;
42244;SDS011;27912;51.828;5.688;2023-07-31T07:00:16;4.07;;;1.63;;
42244;SDS011;27912;51.828;5.688;2023-07-31T07:02:42;3.50;;;1.60;;
42244;SDS011;27912;51.828;5.688;2023-07-31T07:05:08;3.58;;;1.17;;
42244;SDS011;27912;51.828;5.688;2023-07-31T07:07:34;3.05;;;1.48;;
42244;SDS011;27912;51.828;5.688;2023-07-31T07:09:59;4.07;;;1.05;;
42244;SDS011;27912;51.828;5.688;2023-07-31T07:12:25;3.75;;;0.85;;
42244;SDS011;27912;51.828;5.688;2023-07-31T07:14:54;4.22;;;0.80;;
42244;SDS011;27912;51.828;5.688;2023-07-31T07:17:19;2.88;;;0.80;;
42244;SDS011;27912;51.828;5.688;2023-07-31T07:19:45;2.53;;;0.75;;
42244;SDS011;27912;51.828;5.688;2023-07-31T07:22:12;1.70;;;0.50;;
42244;SDS011;27912;51.828;5.688;2023-07-31T07:24:38;2.13;;;0.75;;
42244;SDS011;27912;51.828;5.688;2023-07-31T07:27:03;1.42;;;0.57;;
42244;SDS011;27912;51.828;5.688;2023-07-31T07:29:29;2.85;;;0.70;;
42244;SDS011;27912;51.828;5.688;2023-07-31T07:31:55;2.83;;;0.80;;
42244;SDS011;27912;51.828;5.688;2023-07-31T07:34:27;1.85;;;0.70;;
42244;SDS011;27912;51.828;5.688;2023-07-31T07:36:53;1.35;;;0.68;;
42244;SDS011;27912;51.828;5.688;2023-07-31T07:39:19;1.55;;;0.70;;
42244;SDS011;27912;51.828;5.688;2023-07-31T07:41:45;3.42;;;0.73;;
42244;SDS011;27912;51.828;5.688;2023-07-31T07:44:11;2.40;;;0.90;;
42244;SDS011;27912;51.828;5.688;2023-07-31T07:46:37;1.55;;;0.80;;
42244;SDS011;27912;51.828;5.688;2023-07-31T07:49:03;2.50;;;0.82;;
42244;SDS011;27912;51.828;5.688;2023-07-31T07:51:29;3.33;;;1.10;;
42244;SDS011;27912;51.828;5.688;2023-07-31T07:53:56;5.57;;;1.52;;
42244;SDS011;27912;51.828;5.688;2023-07-31T07:56:22;2.78;;;1.48;;
42244;SDS011;27912;51.828;5.688;2023-07-31T07:58:50;2.80;;;1.27;;
42244;SDS011;27912;51.828;5.688;2023-07-31T08:01:15;2.60;;;1.60;;
42244;SDS011;27912;51.828;5.688;2023-07-31T08:03:42;4.07;;;1.70;;
42244;SDS011;27912;51.828;5.688;2023-07-31T08:06:07;3.97;;;1.58;;
42244;SDS011;27912;51.828;5.688;2023-07-31T08:08:34;4.50;;;1.42;;
42244;SDS011;27912;51.828;5.688;2023-07-31T08:11:00;2.53;;;1.63;;
42244;SDS011;27912;51.828;5.688;2023-07-31T08:13:26;4.70;;;2.13;;
42244;SDS011;27912;51.828;5.688;2023-07-31T08:15:51;4.95;;;2.35;;
42244;SDS011;27912;51.828;5.688;2023-07-31T08:18:17;3.40;;;2.65;;
42244;SDS011;27912;51.828;5.688;2023-07-31T08:20:42;3.22;;;2.47;;
42244;SDS011;27912;51.828;5.688;2023-07-31T08:23:08;4.78;;;2.90;;
42244;SDS011;27912;51.828;5.688;2023-07-31T08:25:34;5.65;;;3.25;;
42244;SDS011;27912;51.828;5.688;2023-07-31T08:28:01;6.80;;;3.67;;
42244;SDS011;27912;51.828;5.688;2023-07-31T08:30:27;5.68;;;3.78;;
42244;SDS011;27912;51.828;5.688;2023-07-31T08:32:52;4.55;;;3.28;;
42244;SDS011;27912;51.828;5.688;2023-07-31T08:35:18;4.80;;;3.72;;
42244;SDS011;27912;51.828;5.688;2023-07-31T08:37:43;5.70;;;3.28;;
42244;SDS011;27912;51.828;5.688;2023-07-31T08:40:09;4.38;;;3.85;;
42244;SDS011;27912;51.828;5.688;2023-07-31T08:42:42;7.30;;;3.58;;
42244;SDS011;27912;51.828;5.688;2023-07-31T08:45:09;6.65;;;3.30;;
42244;SDS011;27912;51.828;5.688;2023-07-31T08:47:41;5.78;;;3.95;;
42244;SDS011;27912;51.828;5.688;2023-07-31T08:50:10;6.07;;;4.03;;
42244;SDS011;27912;51.828;5.688;2023-07-31T08:52:37;6.07;;;3.70;;
42244;SDS011;27912;51.828;5.688;2023-07-31T08:55:03;4.95;;;3.95;;
42244;SDS011;27912;51.828;5.688;2023-07-31T08:57:30;5.68;;;3.35;;
42244;SDS011;27912;51.828;5.688;2023-07-31T08:59:59;6.32;;;4.07;;
42244;SDS011;27912;51.828;5.688;2023-07-31T09:02:25;4.55;;;3.65;;
42244;SDS011;27912;51.828;5.688;2023-07-31T09:04:59;5.25;;;3.63;;
42244;SDS011;27912;51.828;5.688;2023-07-31T09:07:26;5.13;;;3.70;;
42244;SDS011;27912;51.828;5.688;2023-07-31T09:09:52;7.05;;;4.13;;
42244;SDS011;27912;51.828;5.688;2023-07-31T09:12:18;6.65;;;4.28;;
42244;SDS011;27912;51.828;5.688;2023-07-31T09:14:44;6.80;;;5.03;;
42244;SDS011;27912;51.828;5.688;2023-07-31T09:17:11;6.97;;;4.18;;
42244;SDS011;27912;51.828;5.688;2023-07-31T09:19:36;5.97;;;5.20;;
42244;SDS011;27912;51.828;5.688;2023-07-31T09:22:03;6.47;;;5.15;;
42244;SDS011;27912;51.828;5.688;2023-07-31T09:24:30;6.82;;;5.00;;
42244;SDS011;27912;51.828;5.688;2023-07-31T09:26:58;8.70;;;5.43;;
42244;SDS011;27912;51.828;5.688;2023-07-31T09:29:25;7.43;;;5.32;;
42244;SDS011;27912;51.828;5.688;2023-07-31T09:31:53;7.95;;;5.82;;
42244;SDS011;27912;51.828;5.688;2023-07-31T09:34:20;7.68;;;5.55;;
42244;SDS011;27912;51.828;5.688;2023-07-31T09:36:53;9.23;;;6.53;;
42244;SDS011;27912;51.828;5.688;2023-07-31T09:39:19;9.57;;;6.80;;
42244;SDS011;27912;51.828;5.688;2023-07-31T09:41:48;10.85;;;6.20;;
42244;SDS011;27912;51.828;5.688;2023-07-31T09:44:36;8.38;;;6.88;;
42244;SDS011;27912;51.828;5.688;2023-07-31T09:47:05;10.25;;;7.32;;
42244;SDS011;27912;51.828;5.688;2023-07-31T09:49:31;11.00;;;8.32;;
42244;SDS011;27912;51.828;5.688;2023-07-31T09:51:56;13.02;;;8.48;;
42244;SDS011;27912;51.828;5.688;2023-07-31T09:54:22;9.88;;;7.68;;
42244;SDS011;27912;51.828;5.688;2023-07-31T09:56:48;11.00;;;8.70;;
42244;SDS011;27912;51.828;5.688;2023-07-31T09:59:15;17.40;;;9.05;;
42244;SDS011;27912;51.828;5.688;2023-07-31T10:01:42;12.95;;;9.98;;
42244;SDS011;27912;51.828;5.688;2023-07-31T10:04:09;11.45;;;8.52;;
42244;SDS011;27912;51.828;5.688;2023-07-31T10:06:36;11.50;;;8.90;;
42244;SDS011;27912;51.828;5.688;2023-07-31T10:09:05;11.20;;;8.52;;
42244;SDS011;27912;51.828;5.688;2023-07-31T10:11:38;13.75;;;8.85;;
42244;SDS011;27912;51.828;5.688;2023-07-31T10:14:07;12.75;;;9.05;;
42244;SDS011;27912;51.828;5.688;2023-07-31T10:16:33;10.48;;;7.53;;
42244;SDS011;27912;51.828;5.688;2023-07-31T10:19:02;11.88;;;7.68;;
42244;SDS011;27912;51.828;5.688;2023-07-31T10:21:28;14.18;;;7.32;;
42244;SDS011;27912;51.828;5.688;2023-07-31T10:23:54;11.02;;;6.50;;
42244;SDS011;27912;51.828;5.688;2023-07-31T10:26:21;11.52;;;7.68;;
42244;SDS011;27912;51.828;5.688;2023-07-31T10:28:49;9.75;;;6.45;;
42244;SDS011;27912;51.828;5.688;2023-07-31T10:31:17;10.00;;;5.97;;
42244;SDS011;27912;51.828;5.688;2023-07-31T10:33:44;9.57;;;6.28;;
42244;SDS011;27912;51.828;5.688;2023-07-31T10:36:13;10.63;;;6.10;;
42244;SDS011;27912;51.828;5.688;2023-07-31T10:38:41;9.60;;;6.18;;
42244;SDS011;27912;51.828;5.688;2023-07-31T10:41:07;8.82;;;6.07;;
42244;SDS011;27912;51.828;5.688;2023-07-31T10:43:34;11.40;;;5.57;;
42244;SDS011;27912;51.828;5.688;2023-07-31T10:46:01;8.30;;;5.28;;
42244;SDS011;27912;51.828;5.688;2023-07-31T10:48:33;8.80;;;5.40;;
42244;SDS011;27912;51.828;5.688;2023-07-31T10:50:59;7.10;;;4.97;;
42244;SDS011;27912;51.828;5.688;2023-07-31T10:53:26;9.65;;;4.97;;
42244;SDS011;27912;51.828;5.688;2023-07-31T10:55:59;7.05;;;4.28;;
42244;SDS011;27912;51.828;5.688;2023-07-31T10:58:26;8.40;;;4.00;;
42244;SDS011;27912;51.828;5.688;2023-07-31T11:00:55;7.15;;;5.20;;
42244;SDS011;27912;51.828;5.688;2023-07-31T11:03:24;9.82;;;5.65;;
42244;SDS011;27912;51.828;5.688;2023-07-31T11:05:52;6.78;;;5.10;;
42244;SDS011;27912;51.828;5.688;2023-07-31T11:08:25;10.18;;;5.32;;
42244;SDS011;27912;51.828;5.688;2023-07-31T11:13:27;7.88;;;5.18;;
42244;SDS011;27912;51.828;5.688;2023-07-31T11:16:17;8.88;;;4.25;;
42244;SDS011;27912;51.828;5.688;2023-07-31T11:18:44;8.73;;;5.45;;
42244;SDS011;27912;51.828;5.688;2023-07-31T11:21:15;4.72;;;4.10;;
42244;SDS011;27912;51.828;5.688;2023-07-31T11:23:50;6.15;;;4.38;;
42244;SDS011;27912;51.828;5.688;2023-07-31T11:26:17;6.75;;;4.20;;
42244;SDS011;27912;51.828;5.688;2023-07-31T11:28:45;6.53;;;4.15;;
42244;SDS011;27912;51.828;5.688;2023-07-31T11:31:12;6.20;;;4.28;;
42244;SDS011;27912;51.828;5.688;2023-07-31T11:33:38;6.43;;;4.03;;
42244;SDS011;27912;51.828;5.688;2023-07-31T11:36:03;11.80;;;4.25;;
42244;SDS011;27912;51.828;5.688;2023-07-31T11:38:30;4.97;;;3.47;;
42244;SDS011;27912;51.828;5.688;2023-07-31T11:40:59;10.32;;;4.95;;
42244;SDS011;27912;51.828;5.688;2023-07-31T11:43:29;6.82;;;4.40;;
42244;SDS011;27912;51.828;5.688;2023-07-31T11:45:57;11.48;;;4.43;;
42244;SDS011;27912;51.828;5.688;2023-07-31T11:48:24;6.00;;;3.67;;
42244;SDS011;27912;51.828;5.688;2023-07-31T11:50:52;7.05;;;4.00;;
42244;SDS011;27912;51.828;5.688;2023-07-31T11:53:23;6.65;;;3.55;;
42244;SDS011;27912;51.828;5.688;2023-07-31T11:55:52;6.70;;;3.97;;
42244;SDS011;27912;51.828;5.688;2023-07-31T11:58:19;7.72;;;4.63;;
42244;SDS011;27912;51.828;5.688;2023-07-31T12:00:45;6.50;;;4.22;;
42244;SDS011;27912;51.828;5.688;2023-07-31T12:03:11;11.05;;;4.32;;
42244;SDS011;27912;51.828;5.688;2023-07-31T12:05:37;8.88;;;3.97;;
42244;SDS011;27912;51.828;5.688;2023-07-31T12:08:08;8.88;;;4.10;;
42244;SDS011;27912;51.828;5.688;2023-07-31T12:10:35;6.75;;;4.15;;
42244;SDS011;27912;51.828;5.688;2023-07-31T12:13:10;8.45;;;4.57;;
42244;SDS011;27912;51.828;5.688;2023-07-31T12:15:44;8.07;;;5.00;;
42244;SDS011;27912;51.828;5.688;2023-07-31T12:18:11;7.55;;;4.72;;
42244;SDS011;27912;51.828;5.688;2023-07-31T12:20:53;8.48;;;4.75;;
42244;SDS011;27912;51.828;5.688;2023-07-31T12:23:24;6.65;;;4.57;;
42244;SDS011;27912;51.828;5.688;2023-07-31T12:26:11;7.55;;;4.88;;
42244;SDS011;27912;51.828;5.688;2023-07-31T12:28:41;6.43;;;4.45;;
42244;SDS011;27912;51.828;5.688;2023-07-31T12:31:11;8.40;;;4.55;;
42244;SDS011;27912;51.828;5.688;2023-07-31T12:33:39;8.43;;;5.43;;
42244;SDS011;27912;51.828;5.688;2023-07-31T12:36:12;7.82;;;5.95;;
42244;SDS011;27912;51.828;5.688;2023-07-31T12:38:39;9.13;;;5.93;;
42244;SDS011;27912;51.828;5.688;2023-07-31T12:41:05;8.90;;;6.10;;
42244;SDS011;27912;51.828;5.688;2023-07-31T12:43:32;7.13;;;5.00;;
42244;SDS011;27912;51.828;5.688;2023-07-31T12:46:01;8.52;;;4.97;;
42244;SDS011;27912;51.828;5.688;2023-07-31T12:48:27;10.25;;;5.55;;
42244;SDS011;27912;51.828;5.688;2023-07-31T12:50:52;7.63;;;5.20;;
42244;SDS011;27912;51.828;5.688;2023-07-31T12:53:18;7.60;;;5.32;;
42244;SDS011;27912;51.828;5.688;2023-07-31T12:55:44;6.43;;;4.82;;
42244;SDS011;27912;51.828;5.688;2023-07-31T12:58:09;9.52;;;4.50;;
42244;SDS011;27912;51.828;5.688;2023-07-31T13:00:35;8.05;;;5.68;;
42244;SDS011;27912;51.828;5.688;2023-07-31T13:03:00;6.70;;;5.10;;
42244;SDS011;27912;51.828;5.688;2023-07-31T13:05:26;6.07;;;4.88;;
42244;SDS011;27912;51.828;5.688;2023-07-31T13:07:52;7.47;;;4.88;;
42244;SDS011;27912;51.828;5.688;2023-07-31T13:10:18;8.15;;;5.03;;
42244;SDS011;27912;51.828;5.688;2023-07-31T13:12:44;8.32;;;5.28;;
42244;SDS011;27912;51.828;5.688;2023-07-31T13:15:10;6.13;;;4.97;;
42244;SDS011;27912;51.828;5.688;2023-07-31T13:17:36;5.28;;;4.35;;
42244;SDS011;27912;51.828;5.688;2023-07-31T13:20:02;5.38;;;4.43;;
42244;SDS011;27912;51.828;5.688;2023-07-31T13:22:28;6.30;;;4.03;;
42244;SDS011;27912;51.828;5.688;2023-07-31T13:24:54;6.65;;;3.83;;
42244;SDS011;27912;51.828;5.688;2023-07-31T13:27:20;7.13;;;3.88;;
42244;SDS011;27912;51.828;5.688;2023-07-31T13:29:50;4.20;;;3.65;;
42244;SDS011;27912;51.828;5.688;2023-07-31T13:32:16;9.57;;;3.83;;
42244;SDS011;27912;51.828;5.688;2023-07-31T13:34:43;6.15;;;3.90;;
42244;SDS011;27912;51.828;5.688;2023-07-31T13:37:09;5.82;;;4.15;;
42244;SDS011;27912;51.828;5.688;2023-07-31T13:39:35;5.80;;;4.43;;
42244;SDS011;27912;51.828;5.688;2023-07-31T13:42:02;7.78;;;4.80;;
42244;SDS011;27912;51.828;5.688;2023-07-31T13:44:28;13.07;;;4.70;;
42244;SDS011;27912;51.828;5.688;2023-07-31T13:46:54;8.55;;;5.90;;
42244;SDS011;27912;51.828;5.688;2023-07-31T13:49:19;8.50;;;5.25;;
42244;SDS011;27912;51.828;5.688;2023-07-31T13:51:45;7.93;;;5.30;;
42244;SDS011;27912;51.828;5.688;2023-07-31T13:54:11;8.25;;;4.53;;
42244;SDS011;27912;51.828;5.688;2023-07-31T13:56:40;8.75;;;4.95;;
42244;SDS011;27912;51.828;5.688;2023-07-31T13:59:10;9.00;;;4.82;;
42244;SDS011;27912;51.828;5.688;2023-07-31T14:01:36;8.20;;;4.82;;
42244;SDS011;27912;51.828;5.688;2023-07-31T14:04:02;8.65;;;4.55;;
42244;SDS011;27912;51.828;5.688;2023-07-31T14:06:28;8.27;;;4.50;;
42244;SDS011;27912;51.828;5.688;2023-07-31T14:08:53;12.02;;;4.63;;
42244;SDS011;27912;51.828;5.688;2023-07-31T14:11:20;7.50;;;4.78;;
42244;SDS011;27912;51.828;5.688;2023-07-31T14:13:46;6.35;;;4.88;;
42244;SDS011;27912;51.828;5.688;2023-07-31T14:16:12;11.80;;;5.70;;
42244;SDS011;27912;51.828;5.688;2023-07-31T14:18:37;10.80;;;5.57;;
42244;SDS011;27912;51.828;5.688;2023-07-31T14:21:03;8.95;;;5.50;;
42244;SDS011;27912;51.828;5.688;2023-07-31T14:23:29;8.77;;;5.35;;
42244;SDS011;27912;51.828;5.688;2023-07-31T14:25:54;8.50;;;4.65;;
42244;SDS011;27912;51.828;5.688;2023-07-31T14:28:20;9.75;;;4.95;;
42244;SDS011;27912;51.828;5.688;2023-07-31T14:30:45;10.73;;;5.30;;
42244;SDS011;27912;51.828;5.688;2023-07-31T14:33:11;12.05;;;5.65;;
42244;SDS011;27912;51.828;5.688;2023-07-31T14:35:36;9.32;;;5.00;;
42244;SDS011;27912;51.828;5.688;2023-07-31T14:38:02;12.88;;;6.53;;
42244;SDS011;27912;51.828;5.688;2023-07-31T14:40:27;10.68;;;6.35;;